Time;durP1;ratioP1;P1;durP2;ratioP2;P2;SDS_P1;SDS_P2;PMS_P1;PMS_P2;Temp;Humidity;BMP_temperature;BMP_pressure;BME280_temperature;BME280_humidity;BME280_pressure;Samples;Min_cycle;Max_cycle;Signal;HPM_P1;HPM_P2
2022/03/02 00:01:56;;;;;;;23.50;14.10;;;2.90;99.90;;;;;;5056558;28;20456;-69
2022/03/02 00:04:23;;;;;;;20.87;13.10;;;2.90;99.90;;;;;;5055645;28;20463;-69
2022/03/02 00:06:51;;;;;;;20.60;13.90;;;2.90;99.90;;;;;;5056356;28;20474;-70
2022/03/02 00:09:21;;;;;;;19.43;13.60;;;2.90;99.90;;;;;;5056158;28;20796;-68
2022/03/02 00:11:47;;;;;;;20.13;14.33;;;2.90;99.90;;;;;;5055920;28;20465;-69
2022/03/02 00:14:14;;;;;;;19.93;13.50;;;3.00;99.90;;;;;;5055632;28;20910;-69
2022/03/02 00:16:41;;;;;;;20.87;12.70;;;3.00;99.90;;;;;;5056332;28;20529;-69
2022/03/02 00:19:09;;;;;;;21.60;14.30;;;3.00;99.90;;;;;;5055923;28;20490;-70
2022/03/02 00:21:37;;;;;;;19.50;12.90;;;2.90;99.90;;;;;;5055839;28;20541;-68
2022/03/02 00:24:11;;;;;;;17.80;13.10;;;2.90;99.90;;;;;;5055687;28;20459;-69
2022/03/02 00:26:39;;;;;;;25.77;13.50;;;2.90;99.90;;;;;;5055408;28;20443;-69
2022/03/02 00:29:06;;;;;;;20.37;13.60;;;2.90;99.90;;;;;;5054731;28;20451;-69
2022/03/02 00:31:33;;;;;;;19.80;12.97;;;2.90;99.90;;;;;;5056141;28;20824;-69
2022/03/02 00:34:00;;;;;;;24.10;14.20;;;2.90;99.90;;;;;;5055478;28;20497;-70
2022/03/02 00:36:26;;;;;;;20.00;13.60;;;2.90;99.90;;;;;;5056249;28;20451;-69
2022/03/02 00:38:53;;;;;;;24.70;14.20;;;2.90;99.90;;;;;;5056409;28;20586;-69
2022/03/02 00:41:23;;;;;;;20.47;14.10;;;2.90;99.90;;;;;;5056016;28;20502;-68
2022/03/02 00:43:49;;;;;;;18.33;13.63;;;2.90;99.90;;;;;;5056945;28;20454;-69
2022/03/02 00:46:17;;;;;;;23.97;15.00;;;2.90;99.90;;;;;;5056165;28;20969;-69
2022/03/02 00:48:45;;;;;;;19.10;13.17;;;2.90;99.90;;;;;;5056022;28;20459;-69
2022/03/02 00:51:13;;;;;;;23.10;14.80;;;2.90;99.90;;;;;;5055531;28;20528;-69
2022/03/02 00:53:42;;;;;;;25.90;13.47;;;2.90;99.90;;;;;;5055824;28;20466;-69
2022/03/02 00:56:10;;;;;;;26.50;15.67;;;2.90;99.90;;;;;;5056461;28;20537;-69
2022/03/02 00:58:40;;;;;;;22.60;15.20;;;2.90;99.90;;;;;;5055630;28;20549;-69
2022/03/02 01:01:07;;;;;;;24.53;13.40;;;3.00;99.90;;;;;;5056841;28;20443;-69
2022/03/02 01:03:34;;;;;;;23.60;14.40;;;3.00;99.90;;;;;;5057267;28;20483;-71
2022/03/02 01:06:01;;;;;;;26.43;14.80;;;3.00;99.90;;;;;;5058229;28;20451;-69
2022/03/02 01:08:28;;;;;;;21.63;14.50;;;3.00;99.90;;;;;;5056401;28;20844;-69
2022/03/02 01:10:56;;;;;;;18.17;13.07;;;3.00;99.90;;;;;;5056098;28;20481;-69
2022/03/02 01:13:25;;;;;;;20.83;14.20;;;3.00;99.90;;;;;;5055990;28;20939;-68
2022/03/02 01:15:53;;;;;;;21.60;13.00;;;3.00;99.90;;;;;;5056196;28;20776;-68
2022/03/02 01:18:20;;;;;;;21.27;14.60;;;3.00;99.90;;;;;;5054924;28;20816;-69
2022/03/02 01:20:48;;;;;;;22.43;13.77;;;3.00;99.90;;;;;;5055392;28;20466;-68
2022/03/02 01:23:15;;;;;;;22.10;14.00;;;3.00;99.90;;;;;;5054892;28;20463;-68
2022/03/02 01:25:42;;;;;;;25.40;14.27;;;3.00;99.90;;;;;;5054913;28;20471;-69
2022/03/02 01:28:08;;;;;;;22.00;13.90;;;3.00;99.90;;;;;;5054797;28;20458;-68
2022/03/02 01:30:35;;;;;;;20.80;14.60;;;3.00;99.90;;;;;;5054871;28;20459;-68
2022/03/02 01:33:03;;;;;;;23.80;14.67;;;3.00;99.90;;;;;;5054223;28;20549;-69
2022/03/02 01:35:30;;;;;;;20.07;13.80;;;3.00;99.90;;;;;;5054750;28;20815;-69
2022/03/02 01:37:57;;;;;;;19.47;13.20;;;3.10;99.90;;;;;;5055936;28;20956;-70
2022/03/02 01:40:24;;;;;;;22.70;14.07;;;3.10;99.90;;;;;;5060778;28;20483;-69
2022/03/02 01:42:50;;;;;;;18.10;12.80;;;3.10;99.90;;;;;;5059454;28;20483;-69
2022/03/02 01:45:21;;;;;;;22.07;13.23;;;3.10;99.90;;;;;;5058430;28;20459;-69
2022/03/02 01:47:48;;;;;;;20.80;13.50;;;3.00;99.90;;;;;;5058726;28;20447;-69
2022/03/02 01:50:19;;;;;;;21.87;14.00;;;3.00;99.90;;;;;;5058444;28;20451;-69
2022/03/02 01:52:45;;;;;;;21.20;14.53;;;3.00;99.90;;;;;;5058456;28;20463;-67
2022/03/02 01:55:14;;;;;;;20.50;14.63;;;3.00;99.90;;;;;;5058070;28;20458;-69
2022/03/02 01:57:42;;;;;;;32.67;13.77;;;2.90;99.90;;;;;;5058345;28;20776;-71
2022/03/02 02:00:11;;;;;;;20.77;13.57;;;2.90;99.90;;;;;;5058471;28;20479;-69
2022/03/02 02:02:38;;;;;;;20.40;13.73;;;2.90;99.90;;;;;;5058557;28;20566;-69
2022/03/02 02:05:06;;;;;;;19.73;14.03;;;2.90;99.90;;;;;;5058365;28;20451;-69
2022/03/02 02:07:34;;;;;;;21.07;14.20;;;2.80;99.90;;;;;;5058119;28;20466;-69
2022/03/02 02:10:01;;;;;;;21.93;14.50;;;2.80;99.90;;;;;;5058131;28;20459;-69
2022/03/02 02:12:29;;;;;;;21.73;14.17;;;2.80;99.90;;;;;;5057945;28;20466;-69
2022/03/02 02:14:55;;;;;;;23.67;14.53;;;2.90;99.90;;;;;;5058377;28;20900;-69
2022/03/02 02:17:24;;;;;;;25.77;13.93;;;2.90;99.90;;;;;;5058302;28;20509;-69
2022/03/02 02:19:50;;;;;;;19.63;13.90;;;2.80;99.90;;;;;;5058365;28;20752;-69
2022/03/02 02:22:18;;;;;;;17.80;13.93;;;2.80;99.90;;;;;;5058594;28;20459;-69
2022/03/02 02:24:46;;;;;;;21.97;13.47;;;2.80;99.90;;;;;;5058004;28;20482;-69
2022/03/02 02:27:16;;;;;;;21.63;14.70;;;2.80;99.90;;;;;;5058210;28;20458;-69
2022/03/02 02:29:43;;;;;;;18.93;13.63;;;2.90;99.90;;;;;;5058651;28;20447;-69
2022/03/02 02:32:10;;;;;;;20.20;14.37;;;2.90;99.90;;;;;;5058971;28;20471;-69
2022/03/02 02:34:37;;;;;;;23.50;13.83;;;2.90;99.90;;;;;;5057932;28;20466;-69
2022/03/02 02:37:06;;;;;;;18.73;13.80;;;2.90;99.90;;;;;;5059410;28;20470;-69
2022/03/02 02:39:35;;;;;;;21.33;13.93;;;2.90;99.90;;;;;;5059239;28;20475;-69
2022/03/02 02:42:04;;;;;;;18.77;13.27;;;3.00;99.90;;;;;;5058249;28;20489;-69
2022/03/02 02:44:32;;;;;;;20.70;13.20;;;2.90;99.90;;;;;;5057972;28;20939;-69
2022/03/02 02:46:59;;;;;;;26.40;15.07;;;2.90;99.90;;;;;;5059080;28;20459;-69
2022/03/02 02:49:27;;;;;;;19.30;14.37;;;2.90;99.90;;;;;;5058791;28;20458;-69
2022/03/02 02:51:54;;;;;;;20.73;13.73;;;2.90;99.90;;;;;;5057011;28;20978;-69
2022/03/02 02:54:21;;;;;;;24.17;14.83;;;2.90;99.90;;;;;;5058089;28;20853;-69
2022/03/02 02:56:49;;;;;;;24.80;14.40;;;2.80;99.90;;;;;;5057665;28;20470;-69
2022/03/02 02:59:19;;;;;;;18.93;13.97;;;2.90;99.90;;;;;;5057761;28;20493;-68
2022/03/02 03:01:46;;;;;;;20.40;14.37;;;2.90;99.90;;;;;;5057614;28;20779;-70
2022/03/02 03:04:13;;;;;;;20.17;14.37;;;2.90;99.90;;;;;;5057415;28;20471;-69
2022/03/02 03:06:40;;;;;;;24.57;14.27;;;2.90;99.90;;;;;;5057618;28;20477;-69
2022/03/02 03:09:09;;;;;;;21.40;13.37;;;2.90;99.90;;;;;;5057227;28;20451;-69
2022/03/02 03:11:39;;;;;;;24.83;14.30;;;2.90;99.90;;;;;;5057426;28;20455;-69
2022/03/02 03:14:10;;;;;;;27.50;14.40;;;2.90;99.90;;;;;;5056929;28;20491;-69
2022/03/02 03:16:37;;;;;;;20.67;14.77;;;2.90;99.90;;;;;;5057249;28;20439;-69
2022/03/02 03:19:04;;;;;;;22.10;13.90;;;2.80;99.90;;;;;;5056738;28;20807;-69
2022/03/02 03:21:31;;;;;;;19.00;13.73;;;2.90;99.90;;;;;;5057039;28;20459;-69
2022/03/02 03:23:57;;;;;;;22.40;14.40;;;2.90;99.90;;;;;;5056909;28;20462;-69
2022/03/02 03:26:24;;;;;;;22.00;14.23;;;2.90;99.90;;;;;;5056833;28;20463;-69
2022/03/02 03:28:51;;;;;;;22.03;13.97;;;3.00;99.90;;;;;;5056839;28;20451;-69
2022/03/02 03:31:19;;;;;;;21.27;14.70;;;3.00;99.90;;;;;;5056995;28;20470;-68
2022/03/02 03:33:46;;;;;;;17.87;13.80;;;3.00;99.90;;;;;;5056853;28;20451;-69
2022/03/02 03:36:13;;;;;;;18.93;13.37;;;3.00;99.90;;;;;;5056778;28;20467;-69
2022/03/02 03:38:40;;;;;;;22.43;13.67;;;3.00;99.90;;;;;;5056493;28;20915;-68
2022/03/02 03:41:06;;;;;;;24.13;14.90;;;3.00;99.90;;;;;;5056404;28;20498;-69
2022/03/02 03:43:34;;;;;;;24.83;14.50;;;2.90;99.90;;;;;;5056128;28;20954;-69
2022/03/02 03:46:02;;;;;;;29.47;13.87;;;2.90;99.90;;;;;;5056695;28;20451;-69
2022/03/02 03:48:32;;;;;;;27.13;14.20;;;2.90;99.90;;;;;;5056238;28;20488;-69
2022/03/02 03:50:59;;;;;;;19.03;13.17;;;2.90;99.90;;;;;;5056980;28;20491;-68
2022/03/02 03:53:26;;;;;;;19.60;15.10;;;2.80;99.90;;;;;;5056495;28;20507;-68
2022/03/02 03:55:53;;;;;;;23.23;15.13;;;2.80;99.90;;;;;;5056562;28;20816;-68
2022/03/02 03:58:19;;;;;;;20.77;15.40;;;2.70;99.90;;;;;;5057023;28;20459;-69
2022/03/02 04:00:47;;;;;;;24.57;14.53;;;2.70;99.90;;;;;;5056335;28;20574;-69
2022/03/02 04:03:14;;;;;;;27.10;14.70;;;2.70;99.90;;;;;;5056109;28;20463;-69
2022/03/02 04:05:42;;;;;;;22.20;14.10;;;2.60;99.90;;;;;;5055883;28;20778;-68
2022/03/02 04:08:09;;;;;;;22.37;13.87;;;2.60;99.90;;;;;;5056053;28;20467;-69
2022/03/02 04:10:35;;;;;;;20.80;14.77;;;2.50;99.90;;;;;;5056033;28;20904;-69
2022/03/02 04:13:04;;;;;;;20.67;15.23;;;2.50;99.90;;;;;;5055988;28;20470;-70
2022/03/02 04:15:32;;;;;;;26.83;15.53;;;2.50;99.90;;;;;;5056372;28;20466;-69
2022/03/02 04:18:00;;;;;;;25.00;15.70;;;2.60;99.90;;;;;;5055852;28;20483;-69
2022/03/02 04:20:28;;;;;;;20.73;15.10;;;2.60;99.90;;;;;;5056090;28;20475;-68
2022/03/02 04:22:56;;;;;;;21.03;13.77;;;2.60;99.90;;;;;;5055845;28;20459;-68
2022/03/02 04:25:23;;;;;;;19.37;13.50;;;2.60;99.90;;;;;;5055513;28;20486;-68
2022/03/02 04:27:49;;;;;;;22.57;14.90;;;2.60;99.90;;;;;;5056336;28;20463;-68
2022/03/02 04:30:16;;;;;;;22.03;14.03;;;2.60;99.90;;;;;;5055979;28;20769;-68
2022/03/02 04:32:43;;;;;;;21.47;14.77;;;2.50;99.90;;;;;;5055693;28;21057;-69
2022/03/02 04:35:11;;;;;;;26.10;15.23;;;2.50;99.90;;;;;;5056193;28;20459;-69
2022/03/02 04:37:39;;;;;;;20.30;14.10;;;2.60;99.90;;;;;;5056270;28;20470;-68
2022/03/02 04:40:11;;;;;;;25.40;15.27;;;2.60;99.90;;;;;;5056389;28;20479;-69
2022/03/02 04:42:38;;;;;;;23.17;15.73;;;2.60;99.90;;;;;;5056283;28;20487;-68
2022/03/02 04:45:06;;;;;;;21.67;15.80;;;2.70;99.90;;;;;;5056133;28;20455;-69
2022/03/02 04:47:34;;;;;;;23.10;14.67;;;2.70;99.90;;;;;;5055838;28;20462;-69
2022/03/02 04:50:01;;;;;;;25.47;15.67;;;2.70;99.90;;;;;;5056476;28;20490;-69
2022/03/02 04:52:28;;;;;;;22.90;15.67;;;2.70;99.90;;;;;;5055495;28;20536;-69
2022/03/02 04:55:06;;;;;;;28.50;16.43;;;2.70;99.90;;;;;;5056143;28;20459;-68
2022/03/02 04:57:35;;;;;;;22.50;16.40;;;2.70;99.90;;;;;;5058818;28;20900;-70
2022/03/02 05:00:03;;;;;;;24.00;16.10;;;2.70;99.90;;;;;;5055484;28;20550;-70
2022/03/02 05:02:30;;;;;;;20.50;15.10;;;2.70;99.90;;;;;;5054783;28;20528;-69
2022/03/02 05:04:57;;;;;;;24.43;16.07;;;2.60;99.90;;;;;;5055549;28;20467;-69
2022/03/02 05:07:23;;;;;;;24.57;16.13;;;2.60;99.90;;;;;;5054980;28;20463;-68
2022/03/02 05:09:50;;;;;;;26.77;18.87;;;2.60;99.90;;;;;;5054875;28;20904;-69
2022/03/02 05:12:17;;;;;;;26.20;17.40;;;2.60;99.90;;;;;;5055681;28;20455;-69
2022/03/02 05:14:46;;;;;;;22.87;16.50;;;2.50;99.90;;;;;;5055272;28;20466;-68
2022/03/02 05:17:12;;;;;;;26.33;17.60;;;2.50;99.90;;;;;;5055520;28;20459;-69
2022/03/02 05:19:40;;;;;;;27.10;18.60;;;2.50;99.90;;;;;;5054946;28;20807;-69
2022/03/02 05:22:06;;;;;;;27.23;16.87;;;2.50;99.90;;;;;;5055067;28;20926;-69
2022/03/02 05:24:33;;;;;;;30.40;19.07;;;2.50;99.90;;;;;;5054066;28;20946;-69
2022/03/02 05:27:00;;;;;;;30.57;18.23;;;2.50;99.90;;;;;;5054356;28;20462;-68
2022/03/02 05:29:27;;;;;;;28.60;19.30;;;2.60;99.90;;;;;;5054681;28;20466;-68
2022/03/02 05:31:55;;;;;;;44.27;25.80;;;2.50;99.90;;;;;;5054311;28;20466;-68
2022/03/02 05:34:22;;;;;;;28.47;19.57;;;2.50;99.90;;;;;;5055681;28;20799;-68
2022/03/02 05:36:48;;;;;;;33.07;19.20;;;2.50;99.90;;;;;;5055944;28;20781;-69
2022/03/02 05:39:15;;;;;;;28.63;19.27;;;2.50;99.90;;;;;;5054877;28;20454;-69
2022/03/02 05:41:42;;;;;;;44.93;26.87;;;2.50;99.90;;;;;;5054266;28;20959;-68
2022/03/02 05:44:09;;;;;;;43.73;26.87;;;2.60;99.90;;;;;;5054239;28;20520;-69
2022/03/02 05:46:36;;;;;;;28.70;18.63;;;2.60;99.90;;;;;;5054290;28;20520;-69
2022/03/02 05:49:05;;;;;;;28.17;19.13;;;2.50;99.90;;;;;;5054092;28;20922;-70
2022/03/02 05:51:32;;;;;;;30.33;19.60;;;2.50;99.90;;;;;;5054405;28;20481;-69
2022/03/02 05:53:59;;;;;;;30.17;19.77;;;2.60;99.90;;;;;;5054446;28;20458;-70
2022/03/02 05:56:26;;;;;;;34.20;21.50;;;2.60;99.90;;;;;;5054545;28;20459;-70
2022/03/02 05:58:53;;;;;;;32.90;19.77;;;2.60;99.90;;;;;;5054432;28;20475;-69
2022/03/02 06:01:20;;;;;;;28.77;18.97;;;2.70;99.90;;;;;;5054355;28;20482;-68
2022/03/02 06:03:47;;;;;;;28.70;19.43;;;2.70;99.90;;;;;;5054635;28;20553;-68
2022/03/02 06:06:15;;;;;;;26.63;18.63;;;2.80;99.90;;;;;;5054740;28;20451;-69
2022/03/02 06:08:42;;;;;;;25.40;18.50;;;2.80;99.90;;;;;;5054619;28;20763;-69
2022/03/02 06:11:09;;;;;;;33.70;20.17;;;2.70;99.90;;;;;;5054682;28;20458;-69
2022/03/02 06:13:38;;;;;;;25.60;17.90;;;2.70;99.90;;;;;;5054968;28;20458;-69
2022/03/02 06:16:06;;;;;;;30.97;19.87;;;2.80;99.90;;;;;;5054693;28;20455;-69
2022/03/02 06:18:33;;;;;;;30.83;19.97;;;2.80;99.90;;;;;;5055200;28;20781;-69
2022/03/02 06:21:01;;;;;;;34.37;20.40;;;2.90;99.90;;;;;;5055112;28;20566;-69
2022/03/02 06:23:30;;;;;;;34.00;21.03;;;2.90;99.90;;;;;;5055116;28;20513;-68
2022/03/02 06:26:01;;;;;;;36.90;21.30;;;3.00;99.90;;;;;;5056316;28;20459;-70
2022/03/02 06:28:28;;;;;;;33.07;21.87;;;3.00;99.90;;;;;;5058086;28;20469;-69
2022/03/02 06:30:54;;;;;;;42.00;25.37;;;3.10;99.90;;;;;;5058610;28;20484;-69
2022/03/02 06:33:21;;;;;;;31.30;21.27;;;3.10;99.90;;;;;;5057501;28;20462;-71
2022/03/02 06:35:49;;;;;;;34.07;21.73;;;3.10;99.90;;;;;;5057747;28;20459;-69
2022/03/02 06:38:17;;;;;;;34.80;22.83;;;3.10;99.90;;;;;;5057535;28;20466;-69
2022/03/02 06:41:01;;;;;;;36.80;23.73;;;3.00;99.90;;;;;;5057339;28;20483;-69
2022/03/02 06:43:34;;;;;;;36.60;24.17;;;3.00;99.90;;;;;;5057611;28;20450;-70
2022/03/02 06:46:09;;;;;;;36.77;23.10;;;3.00;99.90;;;;;;5057618;28;20527;-69
2022/03/02 06:48:45;;;;;;;38.17;22.27;;;3.10;99.90;;;;;;5057282;28;20450;-70
2022/03/02 06:51:16;;;;;;;34.93;21.40;;;3.10;99.90;;;;;;5057559;28;20880;-70
2022/03/02 06:53:45;;;;;;;34.97;21.97;;;3.10;99.90;;;;;;5057565;28;20520;-69
2022/03/02 06:56:14;;;;;;;35.20;23.20;;;3.20;99.90;;;;;;5056961;28;20458;-69
2022/03/02 06:58:43;;;;;;;49.17;24.20;;;3.20;99.90;;;;;;5057301;28;20520;-70
2022/03/02 07:01:11;;;;;;;43.80;23.60;;;3.20;99.90;;;;;;5057444;28;20494;-69
2022/03/02 07:03:47;;;;;;;35.47;22.93;;;3.20;99.90;;;;;;5057581;28;20474;-70
2022/03/02 07:06:14;;;;;;;37.90;23.97;;;3.30;99.90;;;;;;5057671;28;20470;-69
2022/03/02 07:08:44;;;;;;;37.87;21.70;;;3.30;99.90;;;;;;5056734;28;20993;-70
2022/03/02 07:11:15;;;;;;;68.27;40.37;;;3.30;99.90;;;;;;5057008;28;20497;-69
2022/03/02 07:13:44;;;;;;;41.80;23.80;;;3.40;99.90;;;;;;5057681;28;20450;-68
2022/03/02 07:16:11;;;;;;;57.90;32.70;;;3.50;99.90;;;;;;5056941;28;20470;-69
2022/03/02 07:18:38;;;;;;;39.33;24.57;;;3.50;99.90;;;;;;5056022;28;20459;-69
2022/03/02 07:21:11;;;;;;;48.70;28.93;;;3.60;99.90;;;;;;5057042;28;20494;-69
2022/03/02 07:23:42;;;;;;;42.40;25.00;;;3.60;99.90;;;;;;5056662;28;20455;-69
2022/03/02 07:26:11;;;;;;;49.60;28.67;;;3.70;99.90;;;;;;5057164;28;20443;-70
2022/03/02 07:28:40;;;;;;;37.60;23.20;;;3.80;99.90;;;;;;5057238;28;20455;-69
2022/03/02 07:31:08;;;;;;;42.43;24.53;;;3.90;99.90;;;;;;5056610;28;20459;-71
2022/03/02 07:33:37;;;;;;;41.80;26.17;;;3.90;99.90;;;;;;5057488;28;20841;-69
2022/03/02 07:36:05;;;;;;;44.03;26.10;;;4.00;99.90;;;;;;5057599;28;20851;-69
2022/03/02 07:38:33;;;;;;;37.67;23.30;;;4.10;99.90;;;;;;5057857;28;20462;-69
2022/03/02 07:41:00;;;;;;;32.87;21.90;;;4.20;99.90;;;;;;5057209;28;20491;-68
2022/03/02 07:43:30;;;;;;;38.03;22.93;;;4.20;99.90;;;;;;5056878;28;20451;-69
2022/03/02 07:45:58;;;;;;;33.17;21.77;;;4.10;99.90;;;;;;5056746;28;20474;-68
2022/03/02 07:48:25;;;;;;;31.40;21.10;;;3.80;99.90;;;;;;5056207;28;20775;-69
2022/03/02 07:50:56;;;;;;;33.23;20.80;;;3.70;99.90;;;;;;5056548;28;20459;-70
2022/03/02 07:53:27;;;;;;;30.33;22.20;;;3.70;99.90;;;;;;5056621;28;20827;-70
2022/03/02 07:55:54;;;;;;;41.67;26.73;;;3.60;99.90;;;;;;5055904;28;20463;-69
2022/03/02 07:58:22;;;;;;;34.50;22.37;;;3.60;99.90;;;;;;5056283;28;20805;-70
2022/03/02 08:00:53;;;;;;;35.40;22.87;;;3.50;99.90;;;;;;5056089;28;20503;-70
2022/03/02 08:03:25;;;;;;;37.47;22.57;;;3.50;99.90;;;;;;5056093;28;20880;-69
2022/03/02 08:05:52;;;;;;;32.80;22.50;;;3.50;99.90;;;;;;5056215;28;20497;-69
2022/03/02 08:08:21;;;;;;;38.83;24.57;;;3.70;99.90;;;;;;5056212;28;20451;-69
2022/03/02 08:10:47;;;;;;;38.10;24.37;;;3.80;99.90;;;;;;5056488;28;20470;-69
2022/03/02 08:13:17;;;;;;;36.40;22.80;;;3.80;99.90;;;;;;5056190;28;20471;-70
2022/03/02 08:15:45;;;;;;;36.90;21.83;;;3.90;99.90;;;;;;5056244;28;20463;-70
2022/03/02 08:18:11;;;;;;;33.07;22.37;;;3.90;99.90;;;;;;5056530;28;20847;-69
2022/03/02 08:20:48;;;;;;;33.93;22.90;;;4.00;99.90;;;;;;5056207;28;20483;-69
2022/03/02 08:23:15;;;;;;;34.33;21.80;;;4.10;99.90;;;;;;5056186;28;20892;-69
2022/03/02 08:25:41;;;;;;;36.63;22.80;;;4.00;99.90;;;;;;5056642;28;20455;-69
2022/03/02 08:28:10;;;;;;;36.60;20.37;;;3.90;99.90;;;;;;5056246;28;20481;-69
2022/03/02 08:30:38;;;;;;;36.17;22.67;;;3.90;99.90;;;;;;5056377;28;20747;-71
2022/03/02 08:33:05;;;;;;;34.10;22.30;;;4.00;99.90;;;;;;5055787;28;20466;-69
2022/03/02 08:35:35;;;;;;;33.70;22.30;;;4.00;99.90;;;;;;5056475;28;20470;-69
2022/03/02 08:38:04;;;;;;;34.90;22.17;;;4.00;99.90;;;;;;5055925;28;20455;-70
2022/03/02 08:40:31;;;;;;;31.33;21.93;;;4.20;99.90;;;;;;5055510;28;20463;-69
2022/03/02 08:43:00;;;;;;;35.00;21.73;;;4.30;99.90;;;;;;5055178;28;20494;-68
2022/03/02 08:45:27;;;;;;;36.43;23.57;;;4.50;99.90;;;;;;5055556;28;20458;-68
2022/03/02 08:47:54;;;;;;;34.97;22.00;;;4.70;99.90;;;;;;5055124;28;20459;-68
2022/03/02 08:50:22;;;;;;;33.97;22.13;;;4.90;99.90;;;;;;5055188;28;20463;-69
2022/03/02 08:52:54;;;;;;;35.13;22.40;;;5.10;99.90;;;;;;5055560;28;20791;-69
2022/03/02 08:55:24;;;;;;;35.77;21.57;;;5.10;99.90;;;;;;5056052;28;20796;-69
2022/03/02 08:57:52;;;;;;;31.70;21.20;;;5.20;99.90;;;;;;5055489;28;20512;-70
2022/03/02 09:00:19;;;;;;;39.10;23.77;;;5.10;99.90;;;;;;5055259;28;20470;-69
2022/03/02 09:02:47;;;;;;;31.07;21.23;;;5.10;99.90;;;;;;5055294;28;20491;-70
2022/03/02 09:05:16;;;;;;;37.90;23.03;;;5.20;99.90;;;;;;5055556;28;20463;-71
2022/03/02 09:07:42;;;;;;;29.30;21.00;;;5.20;99.90;;;;;;5055601;28;20465;-69
2022/03/02 09:10:10;;;;;;;35.67;21.53;;;5.30;99.90;;;;;;5055240;28;20455;-70
2022/03/02 09:12:39;;;;;;;29.40;20.20;;;5.40;99.90;;;;;;5055297;28;20908;-70
2022/03/02 09:15:07;;;;;;;33.43;22.10;;;5.60;99.90;;;;;;5054817;28;20465;-69
2022/03/02 09:17:35;;;;;;;31.50;19.90;;;5.70;99.90;;;;;;5055644;28;20916;-69
2022/03/02 09:20:03;;;;;;;30.63;19.50;;;5.80;99.90;;;;;;5056447;28;20455;-70
2022/03/02 09:22:31;;;;;;;30.93;20.23;;;6.00;99.90;;;;;;5054977;28;20963;-71
2022/03/02 09:24:58;;;;;;;32.47;22.00;;;6.20;99.90;;;;;;5055844;28;20774;-70
2022/03/02 09:27:29;;;;;;;32.03;20.93;;;6.40;99.90;;;;;;5055126;28;20478;-69
2022/03/02 09:30:00;;;;;;;32.00;20.87;;;6.60;99.90;;;;;;5055200;28;20880;-70
2022/03/02 09:32:27;;;;;;;32.67;21.80;;;6.80;99.90;;;;;;5054567;28;20444;-70
2022/03/02 09:34:57;;;;;;;30.57;20.83;;;6.90;99.90;;;;;;5055061;28;20459;-69
2022/03/02 09:37:25;;;;;;;32.70;20.17;;;7.10;99.90;;;;;;5055691;28;20447;-69
2022/03/02 09:39:53;;;;;;;30.90;20.20;;;7.20;99.90;;;;;;5055339;28;20546;-70
2022/03/02 09:42:25;;;;;;;28.00;20.37;;;7.40;99.90;;;;;;5054841;28;20502;-69
2022/03/02 09:45:01;;;;;;;29.50;18.83;;;7.40;99.90;;;;;;5054623;28;20526;-71
2022/03/02 09:47:42;;;;;;;29.07;18.47;;;7.50;99.90;;;;;;5054942;28;20526;-70
2022/03/02 09:50:10;;;;;;;26.73;17.23;;;7.40;1.00;;;;;;5054921;28;20727;-69
2022/03/02 09:52:39;;;;;;;27.70;18.20;;;7.40;1.00;;;;;;5054165;28;20455;-69
2022/03/02 09:55:12;;;;;;;27.77;17.00;;;7.40;1.00;;;;;;5056661;28;20467;-69
2022/03/02 09:57:43;;;;;;;26.77;17.00;;;7.50;1.00;;;;;;5057230;28;20447;-70
2022/03/02 10:00:13;;;;;;;23.93;15.90;;;7.50;1.00;;;;;;5057658;28;20444;-69
2022/03/02 10:02:41;;;;;;;23.40;17.00;;;7.60;1.00;;;;;;5059029;28;20501;-69
2022/03/02 10:05:12;;;;;;;25.67;17.93;;;7.70;1.00;;;;;;5058632;28;20466;-70
2022/03/02 10:07:44;;;;;;;29.13;19.27;;;7.80;1.00;;;;;;5058483;28;20462;-69
2022/03/02 10:10:16;;;;;;;24.63;16.53;;;7.90;1.00;;;;;;5057866;28;20443;-71
2022/03/02 10:12:43;;;;;;;36.63;16.20;;;7.90;1.00;;;;;;5057804;28;20475;-70
2022/03/02 10:15:13;;;;;;;23.00;15.53;;;7.80;1.00;;;;;;5058738;28;20454;-69
2022/03/02 10:17:42;;;;;;;27.57;16.60;;;7.80;1.00;;;;;;5058588;28;20887;-69
2022/03/02 10:20:11;;;;;;;23.67;15.57;;;7.90;1.00;;;;;;5058052;28;20459;-69
2022/03/02 10:23:07;;;;;;;25.23;16.93;;;7.90;1.00;;;;;;5058230;28;20532;-70
2022/03/02 10:25:52;;;;;;;25.60;17.03;;;8.00;1.00;;;;;;5057971;28;20444;-69
2022/03/02 10:28:27;;;;;;;24.73;16.57;;;8.00;1.00;;;;;;5057744;28;20449;-70
2022/03/02 10:31:09;;;;;;;24.63;16.50;;;7.90;1.00;;;;;;5057509;28;20446;-70
2022/03/02 10:33:38;;;;;;;24.60;15.83;;;7.80;1.00;;;;;;5058035;28;20439;-70
2022/03/02 10:36:07;;;;;;;26.20;17.63;;;7.90;1.00;;;;;;5057556;28;20470;-69
2022/03/02 10:38:49;;;;;;;25.20;15.67;;;8.00;1.00;;;;;;5057726;28;20455;-69
2022/03/02 10:41:18;;;;;;;23.47;15.67;;;8.10;1.00;;;;;;5057543;28;20495;-69
2022/03/02 10:44:03;;;;;;;22.47;15.50;;;8.00;1.00;;;;;;5057602;28;20462;-69
2022/03/02 10:46:32;;;;;;;25.10;16.90;;;8.00;1.00;;;;;;5057768;28;20474;-69
2022/03/02 10:49:05;;;;;;;21.57;16.60;;;8.20;1.00;;;;;;5057180;28;20521;-70
2022/03/02 10:51:34;;;;;;;20.57;14.50;;;8.40;1.00;;;;;;5057224;28;20439;-70
2022/03/02 10:54:03;;;;;;;21.57;14.27;;;8.50;1.00;;;;;;5057378;28;20520;-70
2022/03/02 10:56:34;;;;;;;20.33;14.23;;;8.60;1.00;;;;;;5056978;28;20483;-70
2022/03/02 10:59:04;;;;;;;22.13;13.80;;;8.60;1.00;;;;;;5057349;28;20443;-70
2022/03/02 11:01:32;;;;;;;22.93;15.20;;;8.70;1.00;;;;;;5056900;28;20808;-70
2022/03/02 11:03:59;;;;;;;20.60;14.20;;;8.70;1.00;;;;;;5056988;28;20518;-70
2022/03/02 11:06:27;;;;;;;28.43;15.53;;;8.80;1.00;;;;;;5056708;28;20942;-69
2022/03/02 11:08:55;;;;;;;24.53;15.60;;;8.80;1.00;;;;;;5056848;28;20455;-70
2022/03/02 11:11:26;;;;;;;24.83;15.00;;;8.90;1.00;;;;;;5056185;28;20463;-70
2022/03/02 11:13:55;;;;;;;27.20;15.40;;;8.90;1.00;;;;;;5056612;28;20801;-70
2022/03/02 11:16:25;;;;;;;26.00;18.20;;;9.00;1.00;;;;;;5056770;28;20459;-70
2022/03/02 11:18:53;;;;;;;22.00;14.10;;;9.00;1.00;;;;;;5057148;28;20465;-70
2022/03/02 11:21:24;;;;;;;25.33;15.47;;;9.00;1.00;;;;;;5056777;28;20789;-70
2022/03/02 11:23:52;;;;;;;30.73;16.27;;;9.00;1.00;;;;;;5056436;28;20538;-69
2022/03/02 11:26:24;;;;;;;24.97;16.10;;;8.80;1.00;;;;;;5056547;28;20459;-69
2022/03/02 11:28:52;;;;;;;27.23;16.33;;;8.70;1.00;;;;;;5057097;28;20446;-70
2022/03/02 11:31:23;;;;;;;23.13;15.87;;;8.60;1.00;;;;;;5056370;28;20461;-70
2022/03/02 11:33:50;;;;;;;29.37;16.17;;;8.60;1.00;;;;;;5056542;28;20538;-69
2022/03/02 11:36:20;;;;;;;21.63;16.07;;;8.70;1.00;;;;;;5056413;28;20896;-69
2022/03/02 11:38:51;;;;;;;19.20;14.80;;;8.80;1.00;;;;;;5058411;28;20455;-71
2022/03/02 11:41:18;;;;;;;21.40;15.60;;;8.70;1.00;;;;;;5058750;28;20533;-70
2022/03/02 11:43:45;;;;;;;24.27;15.93;;;8.80;1.00;;;;;;5058393;28;20458;-71
2022/03/02 11:46:12;;;;;;;26.10;16.30;;;8.80;1.00;;;;;;5058983;28;20459;-72
2022/03/02 11:48:41;;;;;;;25.27;16.13;;;8.80;1.00;;;;;;5056989;28;20455;-69
2022/03/02 11:51:14;;;;;;;25.43;16.40;;;8.90;1.00;;;;;;5055889;28;20892;-69
2022/03/02 11:53:45;;;;;;;22.97;15.50;;;9.10;1.00;;;;;;5059546;28;20440;-70
2022/03/02 11:56:17;;;;;;;22.87;15.70;;;9.20;1.00;;;;;;5065349;28;20449;-73
2022/03/02 11:58:55;;;;;;;22.63;14.73;;;9.20;1.00;;;;;;5063243;28;20562;-68
2022/03/02 12:01:22;;;;;;;17.43;12.77;;;9.20;1.00;;;;;;5056568;28;20516;-70
2022/03/02 12:04:00;;;;;;;23.47;15.00;;;9.20;1.00;;;;;;5058126;28;20469;-71
2022/03/02 12:06:30;;;;;;;17.90;13.03;;;9.20;1.00;;;;;;5057813;28;20555;-70
2022/03/02 12:08:59;;;;;;;22.30;13.40;;;9.40;1.00;;;;;;5057551;28;20469;-70
2022/03/02 12:11:33;;;;;;;23.00;14.37;;;9.70;1.00;;;;;;5058725;28;20463;-70
2022/03/02 12:14:05;;;;;;;22.40;14.57;;;10.60;1.00;;;;;;5059292;28;20439;-71
2022/03/02 12:16:40;;;;;;;23.33;13.40;;;12.00;1.00;;;;;;5058857;28;20455;-70
2022/03/02 12:19:19;;;;;;;17.70;11.93;;;13.20;1.00;;;;;;5058765;28;20458;-70
2022/03/02 12:21:46;;;;;;;21.10;12.53;;;14.00;1.00;;;;;;5059744;28;20502;-69
2022/03/02 12:24:19;;;;;;;16.60;13.03;;;14.70;1.00;;;;;;5058728;28;20494;-70
2022/03/02 12:26:48;;;;;;;23.13;13.70;;;15.00;1.00;;;;;;5058035;28;20443;-72
2022/03/02 12:29:16;;;;;;;17.87;12.57;;;15.90;1.00;;;;;;5056452;28;20482;-69
2022/03/02 12:31:46;;;;;;;18.10;13.23;;;16.90;1.00;;;;;;5056702;28;20463;-71
2022/03/02 12:34:13;;;;;;;15.33;12.80;;;17.00;1.00;;;;;;5055574;28;20455;-70
2022/03/02 12:36:41;;;;;;;17.47;12.87;;;16.90;1.00;;;;;;5056124;28;20466;-70
2022/03/02 12:39:09;;;;;;;19.53;13.20;;;17.20;1.00;;;;;;5055171;28;20455;-70
2022/03/02 12:41:38;;;;;;;18.07;12.60;;;17.50;1.00;;;;;;5055064;28;20533;-70
2022/03/02 12:44:06;;;;;;;20.70;13.40;;;17.90;1.00;;;;;;5055367;28;20460;-69
2022/03/02 12:46:36;;;;;;;23.60;13.97;;;18.60;1.00;;;;;;5055491;28;20497;-70